createdAt,value
2023-03-29T00:01:36.018Z,1.52
2023-03-29T00:04:39.625Z,1.35
2023-03-29T00:07:42.659Z,0.90
2023-03-29T00:10:49.414Z,1.50
2023-03-29T00:13:53.611Z,1.60
2023-03-29T00:16:56.900Z,1.30
2023-03-29T00:19:59.813Z,1.60
2023-03-29T00:23:02.560Z,1.30
2023-03-29T00:26:08.134Z,1.40
2023-03-29T00:29:11.365Z,1.67
2023-03-29T00:32:14.670Z,1.25
2023-03-29T00:35:17.532Z,1.40
2023-03-29T00:38:21.320Z,1.30
2023-03-29T00:41:24.048Z,1.10
2023-03-29T00:45:06.291Z,1.90
2023-03-29T00:48:18.003Z,1.40
2023-03-29T00:51:22.327Z,1.58
2023-03-29T00:54:26.577Z,1.73
2023-03-29T00:57:31.198Z,1.40
2023-03-29T01:00:38.892Z,1.50
2023-03-29T01:03:47.915Z,1.20
2023-03-29T01:06:59.271Z,1.58
2023-03-29T01:10:16.344Z,1.00
2023-03-29T01:13:27.354Z,1.50
2023-03-29T01:16:33.147Z,1.50
2023-03-29T01:19:44.189Z,1.30
2023-03-29T01:23:10.104Z,1.10
2023-03-29T01:26:49.207Z,1.33
2023-03-29T01:30:01.220Z,1.30
2023-03-29T01:33:24.394Z,1.38
2023-03-29T01:36:54.937Z,1.30
2023-03-29T01:39:57.724Z,1.45
2023-03-29T01:43:19.111Z,1.03
2023-03-29T01:46:32.061Z,1.37
2023-03-29T01:49:42.579Z,1.50
2023-03-29T01:52:56.854Z,1.45
2023-03-29T01:56:04.820Z,1.33
2023-03-29T01:59:13.271Z,1.33
2023-03-29T02:02:17.405Z,1.40
2023-03-29T02:05:23.773Z,1.70
2023-03-29T02:08:27.847Z,1.45
2023-03-29T02:11:35.467Z,1.20
2023-03-29T02:14:39.066Z,1.37
2023-03-29T02:17:44.372Z,1.40
2023-03-29T02:20:50.849Z,1.30
2023-03-29T02:23:57.704Z,2.00
2023-03-29T02:27:01.445Z,1.75
2023-03-29T02:30:09.970Z,1.63
2023-03-29T02:33:18.093Z,1.33
2023-03-29T02:36:33.310Z,1.40
2023-03-29T02:39:37.037Z,1.60
2023-03-29T02:42:43.999Z,1.90
2023-03-29T02:45:47.571Z,1.63
2023-03-29T02:48:54.755Z,1.43
2023-03-29T02:52:02.977Z,1.50
2023-03-29T02:55:11.671Z,1.58
2023-03-29T02:58:15.663Z,1.30
2023-03-29T03:01:21.316Z,1.40
2023-03-29T03:04:26.452Z,1.60
2023-03-29T03:07:29.489Z,1.50
2023-03-29T03:10:33.894Z,1.70
2023-03-29T03:13:37.181Z,1.80
2023-03-29T03:16:39.943Z,1.60
2023-03-29T03:19:42.839Z,1.47
2023-03-29T03:22:49.647Z,1.30
2023-03-29T03:25:53.028Z,1.55
2023-03-29T03:28:56.629Z,1.52
2023-03-29T03:32:19.369Z,1.30
2023-03-29T03:35:41.039Z,1.77
2023-03-29T03:38:44.252Z,1.77
2023-03-29T03:41:47.650Z,1.40
2023-03-29T03:44:52.264Z,1.67
2023-03-29T03:48:12.069Z,1.77
2023-03-29T03:51:24.476Z,1.97
2023-03-29T03:54:27.318Z,1.60
2023-03-29T03:57:50.261Z,1.50
2023-03-29T04:00:55.115Z,1.30
2023-03-29T04:04:12.106Z,1.57
2023-03-29T04:07:18.053Z,1.37
2023-03-29T04:10:33.629Z,1.45
2023-03-29T04:14:02.934Z,1.55
2023-03-29T04:17:18.170Z,2.17
2023-03-29T04:20:47.936Z,1.70
2023-03-29T04:23:54.625Z,2.00
2023-03-29T04:26:58.404Z,1.80
2023-03-29T04:30:01.646Z,2.38
2023-03-29T04:33:24.255Z,2.50
2023-03-29T04:36:34.711Z,2.73
2023-03-29T04:39:38.922Z,2.50
2023-03-29T04:42:44.920Z,2.78
2023-03-29T04:45:48.132Z,3.78
2023-03-29T04:49:06.835Z,3.47
2023-03-29T04:52:13.845Z,3.50
2023-03-29T04:55:16.868Z,4.07
2023-03-29T04:58:35.641Z,3.83
2023-03-29T05:01:38.904Z,3.08
2023-03-29T05:04:41.758Z,3.60
2023-03-29T05:07:51.281Z,3.33
2023-03-29T05:10:58.697Z,3.27
2023-03-29T05:14:03.470Z,3.08
2023-03-29T05:17:09.593Z,3.45
2023-03-29T05:20:13.373Z,3.35
2023-03-29T05:23:19.280Z,3.03
2023-03-29T05:26:52.148Z,4.07
2023-03-29T05:29:56.252Z,2.85
2023-03-29T05:33:05.963Z,3.13
2023-03-29T05:36:13.853Z,3.40
2023-03-29T05:39:21.273Z,3.37
2023-03-29T05:42:25.564Z,3.47
2023-03-29T05:45:35.806Z,4.20
2023-03-29T05:48:39.640Z,6.00
2023-03-29T05:51:42.991Z,6.47
2023-03-29T05:54:49.274Z,8.83
2023-03-29T05:57:52.692Z,9.00
2023-03-29T06:01:04.749Z,9.25
2023-03-29T06:04:25.507Z,5.70
2023-03-29T06:07:54.249Z,5.15
2023-03-29T06:11:20.192Z,4.23
2023-03-29T06:14:41.502Z,4.40
2023-03-29T06:17:56.718Z,4.20
2023-03-29T06:20:59.867Z,4.68
2023-03-29T06:24:03.047Z,4.60
2023-03-29T06:27:12.362Z,4.23
2023-03-29T06:30:16.143Z,4.40
2023-03-29T06:33:23.420Z,4.28
2023-03-29T06:36:39.120Z,4.28
2023-03-29T06:39:42.607Z,4.80
2023-03-29T06:43:07.045Z,3.90
2023-03-29T06:46:22.470Z,4.47
2023-03-29T06:49:35.796Z,4.60
2023-03-29T06:52:58.930Z,4.20
2023-03-29T06:56:09.475Z,4.60
2023-03-29T06:59:21.719Z,4.50
2023-03-29T07:02:50.742Z,4.13
2023-03-29T07:06:01.323Z,4.95
2023-03-29T07:09:06.867Z,4.60
2023-03-29T07:12:29.966Z,5.22
2023-03-29T07:15:36.270Z,4.60
2023-03-29T07:19:09.060Z,4.90
2023-03-29T07:22:42.116Z,5.32
2023-03-29T07:25:45.181Z,4.60
2023-03-29T07:28:48.855Z,5.55
2023-03-29T07:31:52.178Z,4.27
2023-03-29T07:35:17.567Z,4.65
2023-03-29T07:38:20.661Z,4.60
2023-03-29T07:41:29.311Z,4.68
2023-03-29T07:44:39.021Z,4.32
2023-03-29T07:47:41.739Z,3.90
2023-03-29T07:50:46.357Z,4.38
2023-03-29T07:53:50.168Z,3.90
2023-03-29T07:57:19.217Z,4.32
2023-03-29T08:00:28.186Z,4.75
2023-03-29T08:03:52.382Z,4.30
2023-03-29T08:06:58.338Z,4.00
2023-03-29T08:10:15.425Z,4.03
2023-03-29T08:13:37.500Z,4.03
2023-03-29T08:17:00.053Z,4.43
2023-03-29T08:20:06.043Z,3.73
2023-03-29T08:23:09.047Z,3.72
2023-03-29T08:26:27.864Z,3.80
2023-03-29T08:29:32.743Z,4.03
2023-03-29T08:35:57.386Z,3.30
2023-03-29T08:39:03.607Z,3.20
2023-03-29T08:42:30.493Z,3.65
2023-03-29T08:45:52.248Z,3.78
2023-03-29T08:49:02.802Z,3.60
2023-03-29T08:52:18.399Z,3.17
2023-03-29T08:55:42.903Z,3.30
2023-03-29T08:59:12.070Z,3.20
2023-03-29T09:02:28.017Z,2.80
2023-03-29T09:05:44.891Z,3.22
2023-03-29T09:09:03.527Z,3.37
2023-03-29T09:12:25.180Z,3.40
2023-03-29T09:16:06.335Z,3.13
2023-03-29T09:19:42.792Z,3.13
2023-03-29T09:23:08.968Z,2.92
2023-03-29T09:26:34.729Z,2.90
2023-03-29T09:30:04.910Z,2.45
2023-03-29T09:33:49.042Z,3.17
2023-03-29T09:37:14.061Z,3.08
2023-03-29T09:40:22.240Z,2.47
2023-03-29T09:43:44.737Z,2.10
2023-03-29T09:46:56.189Z,2.60
2023-03-29T09:50:27.781Z,2.90
2023-03-29T09:53:36.701Z,2.75
2023-03-29T09:56:52.836Z,2.95
2023-03-29T09:59:57.919Z,2.53
2023-03-29T10:03:01.069Z,2.65
2023-03-29T10:06:14.751Z,2.80
2023-03-29T10:09:27.865Z,2.40
2023-03-29T10:12:50.491Z,3.00
2023-03-29T10:15:59.159Z,2.57
2023-03-29T10:19:31.214Z,2.50
2023-03-29T10:22:41.548Z,2.50
2023-03-29T10:25:44.625Z,2.25
2023-03-29T10:28:47.595Z,2.97
2023-03-29T10:31:50.966Z,2.00
2023-03-29T10:34:54.824Z,1.85
2023-03-29T10:38:01.664Z,2.70
2023-03-29T10:41:10.488Z,2.78
2023-03-29T10:44:42.374Z,2.30
2023-03-29T10:47:48.215Z,2.13
2023-03-29T10:50:53.299Z,2.67
2023-03-29T10:53:59.218Z,2.80
2023-03-29T10:57:08.820Z,2.38
2023-03-29T11:00:30.436Z,2.70
2023-03-29T11:03:49.328Z,2.07
2023-03-29T11:07:12.974Z,2.10
2023-03-29T11:10:30.962Z,2.38
2023-03-29T11:14:09.525Z,2.30
2023-03-29T11:17:53.371Z,2.25
2023-03-29T11:21:14.508Z,2.30
2023-03-29T11:24:28.811Z,1.98
2023-03-29T11:27:55.279Z,2.10
2023-03-29T11:31:08.050Z,2.00
2023-03-29T11:34:49.170Z,2.45
2023-03-29T11:38:23.117Z,2.27
2023-03-29T11:41:30.944Z,2.10
2023-03-29T11:44:35.846Z,2.17
2023-03-29T11:47:41.974Z,2.33
2023-03-29T11:50:57.024Z,2.17
2023-03-29T11:54:23.018Z,2.43
2023-03-29T11:57:40.745Z,2.10
2023-03-29T12:00:52.058Z,2.53
2023-03-29T12:03:59.422Z,2.15
2023-03-29T12:07:20.028Z,2.60
2023-03-29T12:10:29.173Z,2.20
2023-03-29T12:13:36.942Z,3.33
2023-03-29T12:16:54.887Z,2.58
2023-03-29T12:20:06.794Z,1.95
2023-03-29T12:23:16.339Z,2.00
2023-03-29T12:26:43.342Z,2.47
2023-03-29T12:29:56.034Z,1.92
2023-03-29T12:32:58.828Z,2.08
2023-03-29T12:36:38.940Z,2.15
2023-03-29T12:40:28.235Z,2.40
2023-03-29T12:43:50.179Z,2.77
2023-03-29T12:47:03.899Z,2.65
2023-03-29T12:50:07.211Z,3.38
2023-03-29T12:53:22.586Z,2.70
2023-03-29T12:56:39.114Z,2.80
2023-03-29T12:59:47.681Z,2.97
2023-03-29T13:03:22.884Z,2.80
2023-03-29T13:06:53.750Z,3.03
2023-03-29T13:09:58.344Z,2.97
2023-03-29T13:13:11.953Z,2.70
2023-03-29T13:16:18.493Z,2.60
2023-03-29T13:19:32.672Z,2.60
2023-03-29T13:22:52.502Z,2.90
2023-03-29T13:26:51.885Z,2.50
2023-03-29T13:30:05.929Z,2.97
2023-03-29T13:33:14.323Z,2.50
2023-03-29T13:36:41.237Z,2.45
2023-03-29T13:39:53.616Z,2.33
2023-03-29T13:43:11.234Z,2.25
2023-03-29T13:46:23.102Z,2.72
2023-03-29T13:49:28.796Z,2.07
2023-03-29T13:52:36.579Z,2.05
2023-03-29T13:55:52.538Z,2.50
2023-03-29T13:59:12.261Z,2.45
2023-03-29T14:02:30.160Z,3.00
2023-03-29T14:05:36.717Z,2.60
2023-03-29T14:08:41.723Z,2.20
2023-03-29T14:11:46.746Z,2.22
2023-03-29T14:14:58.839Z,2.50
2023-03-29T14:18:03.028Z,2.40
2023-03-29T14:21:26.371Z,2.50
2023-03-29T14:24:41.253Z,2.05
2023-03-29T14:27:44.817Z,2.33
2023-03-29T14:30:48.209Z,2.45
2023-03-29T14:33:56.912Z,2.20
2023-03-29T14:36:59.997Z,2.40
2023-03-29T14:40:08.914Z,2.38
2023-03-29T14:43:22.726Z,2.53
2023-03-29T14:46:28.704Z,2.30
2023-03-29T14:49:32.171Z,2.28
2023-03-29T14:52:37.315Z,2.20
2023-03-29T14:55:41.876Z,2.45
2023-03-29T14:58:49.496Z,2.42
2023-03-29T15:01:52.555Z,2.13
2023-03-29T15:04:57.871Z,2.30
2023-03-29T15:08:02.099Z,2.33
2023-03-29T15:11:23.369Z,2.20
2023-03-29T15:14:30.453Z,2.15
2023-03-29T15:17:51.240Z,1.90
2023-03-29T15:20:55.038Z,2.00
2023-03-29T15:24:00.269Z,2.10
2023-03-29T15:27:11.311Z,1.80
2023-03-29T15:30:17.554Z,2.40
2023-03-29T15:33:23.511Z,2.08
2023-03-29T15:36:27.280Z,2.22
2023-03-29T15:39:32.258Z,2.07
2023-03-29T15:42:36.461Z,1.77
2023-03-29T15:45:39.334Z,2.30
2023-03-29T15:48:42.627Z,2.15
2023-03-29T15:51:45.695Z,1.90
2023-03-29T15:54:48.488Z,2.07
2023-03-29T15:57:53.913Z,1.80
2023-03-29T16:01:13.690Z,1.88
2023-03-29T16:04:19.387Z,2.15
2023-03-29T16:07:22.101Z,2.60
2023-03-29T16:10:24.921Z,1.73
2023-03-29T16:13:27.710Z,1.70
2023-03-29T16:16:30.487Z,2.05
2023-03-29T16:19:34.036Z,1.80
2023-03-29T16:22:37.127Z,1.90
2023-03-29T16:25:40.529Z,2.07
2023-03-29T16:28:44.063Z,1.83
2023-03-29T16:31:48.388Z,2.15
2023-03-29T16:34:51.476Z,1.98
2023-03-29T16:37:54.169Z,2.03
2023-03-29T16:40:57.232Z,2.30
2023-03-29T16:44:00.585Z,2.10
2023-03-29T16:47:03.495Z,2.30
2023-03-29T16:50:09.814Z,2.40
2023-03-29T16:53:12.620Z,2.92
2023-03-29T16:56:15.919Z,2.20
2023-03-29T16:59:19.014Z,2.65
2023-03-29T17:02:22.097Z,2.88
2023-03-29T17:05:25.461Z,2.53
2023-03-29T17:08:28.503Z,2.33
2023-03-29T17:11:31.302Z,2.63
2023-03-29T17:14:34.535Z,2.58
2023-03-29T17:17:37.910Z,2.90
2023-03-29T17:20:41.252Z,2.58
2023-03-29T17:23:44.674Z,2.63
2023-03-29T17:26:47.692Z,2.63
2023-03-29T17:29:54.155Z,2.47
2023-03-29T17:32:57.695Z,2.33
2023-03-29T17:39:04.766Z,3.38
2023-03-29T17:42:08.085Z,4.57
2023-03-29T17:45:11.821Z,4.10
2023-03-29T17:48:15.183Z,3.88
2023-03-29T17:51:23.862Z,3.50
2023-03-29T17:54:27.330Z,3.67
2023-03-29T17:57:30.611Z,4.00
2023-03-29T18:00:33.807Z,3.95
2023-03-29T18:03:38.100Z,4.50
2023-03-29T18:06:41.317Z,3.85
2023-03-29T18:09:44.795Z,4.00
2023-03-29T18:12:48.535Z,4.07
2023-03-29T18:15:56.864Z,4.18
2023-03-29T18:19:01.043Z,4.25
2023-03-29T18:22:04.934Z,4.57
2023-03-29T18:25:12.433Z,4.97
2023-03-29T18:28:16.184Z,4.40
2023-03-29T18:31:20.308Z,4.72
2023-03-29T18:34:25.308Z,4.68
2023-03-29T18:37:29.783Z,4.97
2023-03-29T18:40:35.264Z,4.47
2023-03-29T18:43:40.469Z,4.80
2023-03-29T18:46:44.317Z,4.80
2023-03-29T18:49:49.168Z,5.07
2023-03-29T18:52:56.280Z,4.55
2023-03-29T18:56:01.806Z,4.80
2023-03-29T18:59:06.906Z,4.90
2023-03-29T19:02:11.320Z,4.93
2023-03-29T19:05:15.006Z,4.45
2023-03-29T19:08:20.270Z,4.80
2023-03-29T19:11:29.065Z,4.93
2023-03-29T19:14:32.668Z,4.90
2023-03-29T19:17:36.490Z,4.32
2023-03-29T19:20:40.111Z,4.78
2023-03-29T19:23:43.934Z,4.57
2023-03-29T19:26:48.591Z,4.53
2023-03-29T19:29:52.531Z,4.57
2023-03-29T19:33:03.963Z,4.38
2023-03-29T19:36:10.191Z,4.15
2023-03-29T19:39:13.996Z,4.50
2023-03-29T19:42:17.904Z,4.97
2023-03-29T19:45:22.036Z,4.40
2023-03-29T19:48:26.360Z,4.30
2023-03-29T19:51:30.131Z,4.40
2023-03-29T19:54:33.739Z,4.25
2023-03-29T19:57:37.382Z,4.22
2023-03-29T20:00:42.653Z,4.47
2023-03-29T20:03:47.317Z,4.38
2023-03-29T20:06:50.602Z,4.72
2023-03-29T20:09:53.805Z,4.60
2023-03-29T20:12:57.619Z,4.38
2023-03-29T20:16:00.800Z,4.93
2023-03-29T20:19:05.387Z,4.65
2023-03-29T20:22:08.788Z,5.00
2023-03-29T20:25:11.920Z,5.30
2023-03-29T20:28:15.023Z,5.20
2023-03-29T20:31:19.090Z,5.00
2023-03-29T20:34:22.871Z,5.53
2023-03-29T20:37:25.973Z,5.20
2023-03-29T20:40:30.225Z,5.40
2023-03-29T20:43:38.036Z,6.38
2023-03-29T20:46:54.308Z,6.10
2023-03-29T20:49:57.592Z,5.90
2023-03-29T20:53:03.854Z,5.55
2023-03-29T20:56:06.824Z,5.68
2023-03-29T20:59:10.916Z,5.85
2023-03-29T21:02:22.385Z,5.67
2023-03-29T21:05:27.096Z,5.55
2023-03-29T21:08:31.092Z,6.18
2023-03-29T21:11:34.317Z,6.38
2023-03-29T21:14:38.056Z,5.68
2023-03-29T21:17:41.436Z,5.67
2023-03-29T21:20:45.005Z,6.13
2023-03-29T21:23:47.782Z,5.80
2023-03-29T21:26:50.577Z,5.78
2023-03-29T21:29:53.284Z,5.72
2023-03-29T21:32:56.010Z,5.43
2023-03-29T21:35:58.824Z,5.63
2023-03-29T21:39:01.644Z,6.18
2023-03-29T21:42:04.539Z,5.47
2023-03-29T21:45:07.989Z,5.82
2023-03-29T21:48:10.780Z,5.60
2023-03-29T21:51:13.750Z,5.57
2023-03-29T21:54:16.521Z,5.65
2023-03-29T21:57:19.345Z,5.38
2023-03-29T22:00:22.527Z,4.85
2023-03-29T22:03:25.371Z,5.00
2023-03-29T22:06:28.101Z,5.60
2023-03-29T22:09:32.463Z,5.40
2023-03-29T22:12:37.325Z,5.80
2023-03-29T22:15:40.120Z,5.25
2023-03-29T22:18:43.113Z,5.33
2023-03-29T22:21:46.318Z,5.82
2023-03-29T22:24:49.038Z,5.80
2023-03-29T22:27:51.717Z,5.13
2023-03-29T22:30:54.468Z,5.28
2023-03-29T22:33:58.632Z,5.27
2023-03-29T22:37:01.459Z,5.45
2023-03-29T22:40:05.006Z,5.25
2023-03-29T22:43:07.900Z,4.72
2023-03-29T22:46:13.060Z,5.05
2023-03-29T22:49:15.983Z,4.90
2023-03-29T22:52:18.891Z,4.68
2023-03-29T22:55:21.645Z,4.85
2023-03-29T22:58:24.797Z,4.55
2023-03-29T23:01:27.708Z,4.45
2023-03-29T23:04:30.706Z,4.47
2023-03-29T23:07:36.616Z,4.70
2023-03-29T23:10:39.370Z,4.82
2023-03-29T23:13:42.155Z,4.97
2023-03-29T23:16:45.011Z,4.80
2023-03-29T23:19:48.122Z,4.50
2023-03-29T23:22:50.895Z,5.28
2023-03-29T23:25:55.850Z,4.75
2023-03-29T23:28:58.781Z,4.75
2023-03-29T23:32:01.497Z,4.70
2023-03-29T23:35:04.688Z,4.80
2023-03-29T23:38:08.640Z,4.18
2023-03-29T23:41:12.999Z,4.82
2023-03-29T23:44:16.131Z,4.78
2023-03-29T23:47:18.827Z,4.45
2023-03-29T23:50:22.746Z,4.63
2023-03-29T23:53:28.836Z,4.35
2023-03-29T23:56:32.117Z,4.35
2023-03-29T23:59:37.872Z,4.47
